sensor_id;sensor_type;location;lat;lon;timestamp;P1;P2;P0
31163;PMS5003;17796;49.296;-117.656;2023-02-12T00:07:34;21;14;
31163;PMS5003;17796;49.296;-117.656;2023-02-12T00:22:38;24;16;
31163;PMS5003;17796;49.296;-117.656;2023-02-12T00:37:42;14;13;
31163;PMS5003;17796;49.296;-117.656;2023-02-12T00:52:47;28;20;
31163;PMS5003;17796;49.296;-117.656;2023-02-12T01:07:52;24;15;
31163;PMS5003;17796;49.296;-117.656;2023-02-12T01:22:56;22;15;
31163;PMS5003;17796;49.296;-117.656;2023-02-12T01:38:00;15;13;
31163;PMS5003;17796;49.296;-117.656;2023-02-12T01:53:03;16;12;
31163;PMS5003;17796;49.296;-117.656;2023-02-12T02:08:07;24;19;
31163;PMS5003;17796;49.296;-117.656;2023-02-12T02:23:29;30;15;
31163;PMS5003;17796;49.296;-117.656;2023-02-12T02:38:44;23;16;
31163;PMS5003;17796;49.296;-117.656;2023-02-12T02:53:56;27;22;
31163;PMS5003;17796;49.296;-117.656;2023-02-12T03:09:08;26;18;
31163;PMS5003;17796;49.296;-117.656;2023-02-12T03:24:19;19;15;
31163;PMS5003;17796;49.296;-117.656;2023-02-12T03:39:32;24;16;
31163;PMS5003;17796;49.296;-117.656;2023-02-12T03:54:37;19;17;
31163;PMS5003;17796;49.296;-117.656;2023-02-12T04:09:41;25;18;
31163;PMS5003;17796;49.296;-117.656;2023-02-12T04:24:53;18;16;
31163;PMS5003;17796;49.296;-117.656;2023-02-12T04:40:02;38;26;
31163;PMS5003;17796;49.296;-117.656;2023-02-12T04:55:07;37;26;
31163;PMS5003;17796;49.296;-117.656;2023-02-12T05:10:11;25;19;
31163;PMS5003;17796;49.296;-117.656;2023-02-12T05:25:15;34;27;
31163;PMS5003;17796;49.296;-117.656;2023-02-12T05:40:19;20;17;
31163;PMS5003;17796;49.296;-117.656;2023-02-12T05:55:23;20;16;
31163;PMS5003;17796;49.296;-117.656;2023-02-12T06:10:26;18;16;
31163;PMS5003;17796;49.296;-117.656;2023-02-12T06:25:30;13;13;
31163;PMS5003;17796;49.296;-117.656;2023-02-12T06:40:33;9;9;
31163;PMS5003;17796;49.296;-117.656;2023-02-12T06:55:37;13;8;
31163;PMS5003;17796;49.296;-117.656;2023-02-12T07:10:41;10;10;
31163;PMS5003;17796;49.296;-117.656;2023-02-12T07:25:54;13;9;
31163;PMS5003;17796;49.296;-117.656;2023-02-12T07:41:07;10;7;
31163;PMS5003;17796;49.296;-117.656;2023-02-12T07:56:14;11;9;
31163;PMS5003;17796;49.296;-117.656;2023-02-12T08:11:18;12;10;
31163;PMS5003;17796;49.296;-117.656;2023-02-12T08:26:24;11;11;
31163;PMS5003;17796;49.296;-117.656;2023-02-12T08:41:29;9;9;
31163;PMS5003;17796;49.296;-117.656;2023-02-12T08:56:35;5;5;
31163;PMS5003;17796;49.296;-117.656;2023-02-12T09:11:39;6;6;
31163;PMS5003;17796;49.296;-117.656;2023-02-12T09:26:43;6;5;
31163;PMS5003;17796;49.296;-117.656;2023-02-12T09:42:05;6;6;
31163;PMS5003;17796;49.296;-117.656;2023-02-12T09:57:20;13;7;
31163;PMS5003;17796;49.296;-117.656;2023-02-12T10:12:34;6;6;
31163;PMS5003;17796;49.296;-117.656;2023-02-12T10:27:44;7;7;
31163;PMS5003;17796;49.296;-117.656;2023-02-12T10:42:50;9;9;
31163;PMS5003;17796;49.296;-117.656;2023-02-12T10:57:56;10;9;
31163;PMS5003;17796;49.296;-117.656;2023-02-12T11:13:01;9;8;
31163;PMS5003;17796;49.296;-117.656;2023-02-12T11:28:15;10;10;
31163;PMS5003;17796;49.296;-117.656;2023-02-12T11:43:19;10;9;
31163;PMS5003;17796;49.296;-117.656;2023-02-12T11:58:25;9;9;
31163;PMS5003;17796;49.296;-117.656;2023-02-12T12:13:33;12;10;
31163;PMS5003;17796;49.296;-117.656;2023-02-12T12:28:44;18;15;
31163;PMS5003;17796;49.296;-117.656;2023-02-12T12:43:57;16;12;
31163;PMS5003;17796;49.296;-117.656;2023-02-12T12:59:22;16;12;
31163;PMS5003;17796;49.296;-117.656;2023-02-12T13:14:41;23;23;
31163;PMS5003;17796;49.296;-117.656;2023-02-12T13:29:49;12;11;
31163;PMS5003;17796;49.296;-117.656;2023-02-12T13:45:00;15;15;
31163;PMS5003;17796;49.296;-117.656;2023-02-12T14:00:57;24;21;
31163;PMS5003;17796;49.296;-117.656;2023-02-12T14:16:19;19;14;
31163;PMS5003;17796;49.296;-117.656;2023-02-12T14:31:36;10;10;
31163;PMS5003;17796;49.296;-117.656;2023-02-12T14:46:47;21;20;
31163;PMS5003;17796;49.296;-117.656;2023-02-12T15:01:51;16;15;
31163;PMS5003;17796;49.296;-117.656;2023-02-12T15:16:59;20;19;
31163;PMS5003;17796;49.296;-117.656;2023-02-12T15:32:06;24;23;
31163;PMS5003;17796;49.296;-117.656;2023-02-12T15:47:13;17;17;
31163;PMS5003;17796;49.296;-117.656;2023-02-12T16:02:20;24;18;
31163;PMS5003;17796;49.296;-117.656;2023-02-12T16:17:28;16;15;
31163;PMS5003;17796;49.296;-117.656;2023-02-12T16:32:37;20;20;
31163;PMS5003;17796;49.296;-117.656;2023-02-12T16:47:43;19;12;
31163;PMS5003;17796;49.296;-117.656;2023-02-12T17:02:54;15;14;
31163;PMS5003;17796;49.296;-117.656;2023-02-12T17:17:58;15;15;
31163;PMS5003;17796;49.296;-117.656;2023-02-12T17:33:01;25;18;
31163;PMS5003;17796;49.296;-117.656;2023-02-12T17:48:07;32;24;
31163;PMS5003;17796;49.296;-117.656;2023-02-12T18:03:10;22;20;
31163;PMS5003;17796;49.296;-117.656;2023-02-12T18:18:14;15;15;
31163;PMS5003;17796;49.296;-117.656;2023-02-12T18:33:18;37;26;
31163;PMS5003;17796;49.296;-117.656;2023-02-12T18:48:22;21;17;
31163;PMS5003;17796;49.296;-117.656;2023-02-12T19:03:26;22;20;
31163;PMS5003;17796;49.296;-117.656;2023-02-12T19:18:30;15;15;
31163;PMS5003;17796;49.296;-117.656;2023-02-12T19:33:33;21;20;
31163;PMS5003;17796;49.296;-117.656;2023-02-12T19:48:37;21;15;
31163;PMS5003;17796;49.296;-117.656;2023-02-12T20:03:42;34;30;
31163;PMS5003;17796;49.296;-117.656;2023-02-12T20:18:47;31;28;
31163;PMS5003;17796;49.296;-117.656;2023-02-12T20:33:55;38;31;
31163;PMS5003;17796;49.296;-117.656;2023-02-12T20:48:58;14;14;
31163;PMS5003;17796;49.296;-117.656;2023-02-12T21:04:05;21;16;
31163;PMS5003;17796;49.296;-117.656;2023-02-12T21:19:10;17;17;
31163;PMS5003;17796;49.296;-117.656;2023-02-12T21:34:15;19;18;
31163;PMS5003;17796;49.296;-117.656;2023-02-12T21:49:20;21;17;
31163;PMS5003;17796;49.296;-117.656;2023-02-12T22:04:24;21;20;
31163;PMS5003;17796;49.296;-117.656;2023-02-12T22:19:28;16;13;
31163;PMS5003;17796;49.296;-117.656;2023-02-12T22:34:32;12;12;
31163;PMS5003;17796;49.296;-117.656;2023-02-12T22:49:36;22;20;
31163;PMS5003;17796;49.296;-117.656;2023-02-12T23:04:40;21;20;
31163;PMS5003;17796;49.296;-117.656;2023-02-12T23:19:44;14;12;
31163;PMS5003;17796;49.296;-117.656;2023-02-12T23:34:49;18;14;
31163;PMS5003;17796;49.296;-117.656;2023-02-12T23:49:52;13;9;
